sensor_id;sensor_type;location;lat;lon;timestamp;pressure;altitude;pressure_sealevel;temperature
67515;BMP280;60646;55.802;37.032;2022-08-01T00:02:03;100003.78;;;19.61
67515;BMP280;60646;55.802;37.032;2022-08-01T00:04:29;100012.28;;;19.65
67515;BMP280;60646;55.802;37.032;2022-08-01T00:07:13;100009.75;;;19.67
67515;BMP280;60646;55.802;37.032;2022-08-01T00:09:38;99999.97;;;19.56
67515;BMP280;60646;55.802;37.032;2022-08-01T00:12:04;100008.97;;;19.58
67515;BMP280;60646;55.802;37.032;2022-08-01T00:14:30;99991.97;;;19.50
67515;BMP280;60646;55.802;37.032;2022-08-01T00:16:56;99994.50;;;19.48
67515;BMP280;60646;55.802;37.032;2022-08-01T00:19:21;99984.38;;;19.41
67515;BMP280;60646;55.802;37.032;2022-08-01T00:21:47;99978.56;;;19.37
67515;BMP280;60646;55.802;37.032;2022-08-01T00:24:13;99983.63;;;19.41
67515;BMP280;60646;55.802;37.032;2022-08-01T00:26:39;99988.16;;;19.38
67515;BMP280;60646;55.802;37.032;2022-08-01T00:29:04;99990.28;;;19.32
67515;BMP280;60646;55.802;37.032;2022-08-01T00:31:30;99984.69;;;19.30
67515;BMP280;60646;55.802;37.032;2022-08-01T00:33:56;99985.75;;;19.27
67515;BMP280;60646;55.802;37.032;2022-08-01T00:36:22;99976.53;;;19.23
67515;BMP280;60646;55.802;37.032;2022-08-01T00:38:47;99983.41;;;19.24
67515;BMP280;60646;55.802;37.032;2022-08-01T00:41:32;100000.94;;;19.30
67515;BMP280;60646;55.802;37.032;2022-08-01T00:43:57;99985.38;;;19.23
67515;BMP280;60646;55.802;37.032;2022-08-01T00:46:23;99989.69;;;19.19
67515;BMP280;60646;55.802;37.032;2022-08-01T00:48:49;99997.31;;;19.20
67515;BMP280;60646;55.802;37.032;2022-08-01T00:51:15;99988.81;;;19.16
67515;BMP280;60646;55.802;37.032;2022-08-01T00:53:41;99994.22;;;19.16
67515;BMP280;60646;55.802;37.032;2022-08-01T00:56:07;99994.00;;;19.14
67515;BMP280;60646;55.802;37.032;2022-08-01T00:58:33;100006.47;;;19.17
67515;BMP280;60646;55.802;37.032;2022-08-01T01:00:59;99998.31;;;19.10
67515;BMP280;60646;55.802;37.032;2022-08-01T01:03:26;99995.25;;;19.13
67515;BMP280;60646;55.802;37.032;2022-08-01T01:09:44;99999.66;;;19.16
67515;BMP280;60646;55.802;37.032;2022-08-01T01:12:29;99975.19;;;19.01
67515;BMP280;60646;55.802;37.032;2022-08-01T01:17:46;99992.19;;;19.09
67515;BMP280;60646;55.802;37.032;2022-08-01T01:20:14;99979.84;;;18.93
67515;BMP280;60646;55.802;37.032;2022-08-01T01:26:12;99989.22;;;18.92
67515;BMP280;60646;55.802;37.032;2022-08-01T01:31:32;99981.59;;;18.83
67515;BMP280;60646;55.802;37.032;2022-08-01T01:33:59;99978.28;;;18.77
67515;BMP280;60646;55.802;37.032;2022-08-01T01:36:26;99982.28;;;18.76
67515;BMP280;60646;55.802;37.032;2022-08-01T01:38:54;99968.16;;;18.70
67515;BMP280;60646;55.802;37.032;2022-08-01T01:41:22;99973.34;;;18.68
67515;BMP280;60646;55.802;37.032;2022-08-01T01:43:49;99980.44;;;18.71
67515;BMP280;60646;55.802;37.032;2022-08-01T01:46:20;99978.97;;;18.70
67515;BMP280;60646;55.802;37.032;2022-08-01T01:48:49;99978.59;;;18.66
67515;BMP280;60646;55.802;37.032;2022-08-01T01:51:16;99989.47;;;18.73
67515;BMP280;60646;55.802;37.032;2022-08-01T01:53:43;99965.94;;;18.61
67515;BMP280;60646;55.802;37.032;2022-08-01T01:56:09;99976.22;;;18.62
67515;BMP280;60646;55.802;37.032;2022-08-01T01:58:37;99972.44;;;18.58
67515;BMP280;60646;55.802;37.032;2022-08-01T02:01:26;99988.72;;;18.73
67515;BMP280;60646;55.802;37.032;2022-08-01T02:03:54;99981.09;;;18.64
67515;BMP280;60646;55.802;37.032;2022-08-01T02:06:23;99985.84;;;18.71
67515;BMP280;60646;55.802;37.032;2022-08-01T02:08:50;99976.75;;;18.61
67515;BMP280;60646;55.802;37.032;2022-08-01T02:11:19;99958.31;;;18.52
67515;BMP280;60646;55.802;37.032;2022-08-01T02:14:01;99992.50;;;18.70
67515;BMP280;60646;55.802;37.032;2022-08-01T02:16:29;99973.69;;;18.57
67515;BMP280;60646;55.802;37.032;2022-08-01T02:18:58;99959.75;;;18.53
67515;BMP280;60646;55.802;37.032;2022-08-01T02:21:28;99967.03;;;18.58
67515;BMP280;60646;55.802;37.032;2022-08-01T02:24:03;99956.84;;;18.51
67515;BMP280;60646;55.802;37.032;2022-08-01T02:26:35;99962.97;;;18.51
67515;BMP280;60646;55.802;37.032;2022-08-01T02:29:07;99967.19;;;18.60
67515;BMP280;60646;55.802;37.032;2022-08-01T02:31:38;99966.81;;;18.56
67515;BMP280;60646;55.802;37.032;2022-08-01T02:34:06;99965.34;;;18.55
67515;BMP280;60646;55.802;37.032;2022-08-01T02:36:35;99968.03;;;18.55
67515;BMP280;60646;55.802;37.032;2022-08-01T02:39:21;99963.50;;;18.50
67515;BMP280;60646;55.802;37.032;2022-08-01T02:41:50;99980.19;;;18.61
67515;BMP280;60646;55.802;37.032;2022-08-01T02:44:24;99987.22;;;18.64
67515;BMP280;60646;55.802;37.032;2022-08-01T02:46:56;99961.16;;;18.54
67515;BMP280;60646;55.802;37.032;2022-08-01T02:49:24;99971.13;;;18.59
67515;BMP280;60646;55.802;37.032;2022-08-01T02:51:52;99963.72;;;18.52
67515;BMP280;60646;55.802;37.032;2022-08-01T02:54:20;99981.47;;;18.68
67515;BMP280;60646;55.802;37.032;2022-08-01T02:56:47;99983.66;;;18.69
67515;BMP280;60646;55.802;37.032;2022-08-01T02:59:16;99977.53;;;18.69
67515;BMP280;60646;55.802;37.032;2022-08-01T03:01:44;99969.91;;;18.67
67515;BMP280;60646;55.802;37.032;2022-08-01T03:04:11;99979.38;;;18.74
67515;BMP280;60646;55.802;37.032;2022-08-01T03:06:38;99979.97;;;18.80
67515;BMP280;60646;55.802;37.032;2022-08-01T03:09:06;99974.72;;;18.82
67515;BMP280;60646;55.802;37.032;2022-08-01T03:11:32;99977.63;;;18.84
67515;BMP280;60646;55.802;37.032;2022-08-01T03:14:02;99973.31;;;18.89
67515;BMP280;60646;55.802;37.032;2022-08-01T03:16:28;99971.84;;;18.88
67515;BMP280;60646;55.802;37.032;2022-08-01T03:18:56;99969.00;;;18.93
67515;BMP280;60646;55.802;37.032;2022-08-01T03:21:23;99972.25;;;18.99
67515;BMP280;60646;55.802;37.032;2022-08-01T03:23:51;99971.97;;;19.03
67515;BMP280;60646;55.802;37.032;2022-08-01T03:26:31;99964.06;;;19.12
67515;BMP280;60646;55.802;37.032;2022-08-01T03:29:02;99960.78;;;19.14
67515;BMP280;60646;55.802;37.032;2022-08-01T03:31:34;99971.31;;;19.25
67515;BMP280;60646;55.802;37.032;2022-08-01T03:34:01;99971.31;;;19.32
67515;BMP280;60646;55.802;37.032;2022-08-01T03:36:28;99963.78;;;19.38
67515;BMP280;60646;55.802;37.032;2022-08-01T03:38:57;99974.63;;;19.53
67515;BMP280;60646;55.802;37.032;2022-08-01T03:41:26;99958.53;;;19.48
67515;BMP280;60646;55.802;37.032;2022-08-01T03:44:03;99966.38;;;19.67
67515;BMP280;60646;55.802;37.032;2022-08-01T03:46:47;99959.16;;;19.69
67515;BMP280;60646;55.802;37.032;2022-08-01T03:49:41;99962.94;;;19.81
67515;BMP280;60646;55.802;37.032;2022-08-01T03:52:07;99958.44;;;19.84
67515;BMP280;60646;55.802;37.032;2022-08-01T03:54:36;99974.00;;;19.98
67515;BMP280;60646;55.802;37.032;2022-08-01T03:57:03;99954.09;;;19.96
67515;BMP280;60646;55.802;37.032;2022-08-01T03:59:31;99964.94;;;20.11
67515;BMP280;60646;55.802;37.032;2022-08-01T04:01:57;99964.75;;;20.16
67515;BMP280;60646;55.802;37.032;2022-08-01T04:04:24;99955.72;;;20.14
67515;BMP280;60646;55.802;37.032;2022-08-01T04:06:50;99962.19;;;20.26
67515;BMP280;60646;55.802;37.032;2022-08-01T04:09:20;99956.97;;;20.28
67515;BMP280;60646;55.802;37.032;2022-08-01T04:11:47;99966.00;;;20.46
67515;BMP280;60646;55.802;37.032;2022-08-01T04:14:13;99963.81;;;20.52
67515;BMP280;60646;55.802;37.032;2022-08-01T04:16:39;99949.69;;;20.53
67515;BMP280;60646;55.802;37.032;2022-08-01T04:19:04;99953.66;;;20.60
67515;BMP280;60646;55.802;37.032;2022-08-01T04:21:33;99963.91;;;20.76
67515;BMP280;60646;55.802;37.032;2022-08-01T04:24:05;99955.38;;;20.80
67515;BMP280;60646;55.802;37.032;2022-08-01T04:26:32;99966.53;;;21.06
67515;BMP280;60646;55.802;37.032;2022-08-01T04:29:00;99962.03;;;21.01
67515;BMP280;60646;55.802;37.032;2022-08-01T04:31:27;99951.16;;;21.01
67515;BMP280;60646;55.802;37.032;2022-08-01T04:33:56;99965.00;;;21.21
67515;BMP280;60646;55.802;37.032;2022-08-01T04:36:23;99971.13;;;21.29
67515;BMP280;60646;55.802;37.032;2022-08-01T04:38:52;99966.38;;;21.37
67515;BMP280;60646;55.802;37.032;2022-08-01T04:41:21;99948.25;;;21.32
67515;BMP280;60646;55.802;37.032;2022-08-01T04:43:47;99973.34;;;21.55
67515;BMP280;60646;55.802;37.032;2022-08-01T04:46:14;99964.94;;;21.60
67515;BMP280;60646;55.802;37.032;2022-08-01T04:48:40;99965.06;;;21.70
67515;BMP280;60646;55.802;37.032;2022-08-01T04:51:13;99962.06;;;21.83
67515;BMP280;60646;55.802;37.032;2022-08-01T04:53:41;99959.50;;;21.85
67515;BMP280;60646;55.802;37.032;2022-08-01T04:56:06;99962.25;;;22.02
67515;BMP280;60646;55.802;37.032;2022-08-01T04:58:32;99958.75;;;22.09
67515;BMP280;60646;55.802;37.032;2022-08-01T05:00:58;99966.06;;;22.24
67515;BMP280;60646;55.802;37.032;2022-08-01T05:03:24;99957.63;;;22.29
67515;BMP280;60646;55.802;37.032;2022-08-01T05:05:49;99969.66;;;22.43
67515;BMP280;60646;55.802;37.032;2022-08-01T05:08:15;99969.31;;;22.56
67515;BMP280;60646;55.802;37.032;2022-08-01T05:10:41;99969.16;;;22.71
67515;BMP280;60646;55.802;37.032;2022-08-01T05:13:08;99977.56;;;22.83
67515;BMP280;60646;55.802;37.032;2022-08-01T05:15:36;99965.53;;;22.86
67515;BMP280;60646;55.802;37.032;2022-08-01T05:18:03;99961.59;;;22.97
67515;BMP280;60646;55.802;37.032;2022-08-01T05:20:28;99960.66;;;23.11
67515;BMP280;60646;55.802;37.032;2022-08-01T05:22:54;99967.03;;;23.23
67515;BMP280;60646;55.802;37.032;2022-08-01T05:25:20;99957.88;;;23.28
67515;BMP280;60646;55.802;37.032;2022-08-01T05:27:46;99959.34;;;23.39
67515;BMP280;60646;55.802;37.032;2022-08-01T05:30:12;99977.06;;;23.57
67515;BMP280;60646;55.802;37.032;2022-08-01T05:32:38;99959.72;;;23.62
67515;BMP280;60646;55.802;37.032;2022-08-01T05:35:05;99956.47;;;23.73
67515;BMP280;60646;55.802;37.032;2022-08-01T05:37:31;99948.69;;;23.79
67515;BMP280;60646;55.802;37.032;2022-08-01T05:39:56;99951.19;;;23.94
67515;BMP280;60646;55.802;37.032;2022-08-01T05:42:22;99960.22;;;24.06
67515;BMP280;60646;55.802;37.032;2022-08-01T05:44:47;99952.75;;;24.16
67515;BMP280;60646;55.802;37.032;2022-08-01T05:47:13;99959.09;;;24.28
67515;BMP280;60646;55.802;37.032;2022-08-01T05:49:39;99951.50;;;24.36
67515;BMP280;60646;55.802;37.032;2022-08-01T05:52:05;99957.94;;;24.51
67515;BMP280;60646;55.802;37.032;2022-08-01T05:54:31;99946.00;;;24.56
67515;BMP280;60646;55.802;37.032;2022-08-01T05:56:56;99949.31;;;24.64
67515;BMP280;60646;55.802;37.032;2022-08-01T05:59:25;99935.47;;;24.62
67515;BMP280;60646;55.802;37.032;2022-08-01T06:01:51;99940.75;;;24.79
67515;BMP280;60646;55.802;37.032;2022-08-01T06:04:17;99939.47;;;24.80
67515;BMP280;60646;55.802;37.032;2022-08-01T06:06:43;99946.94;;;24.89
67515;BMP280;60646;55.802;37.032;2022-08-01T06:09:08;99951.34;;;25.03
67515;BMP280;60646;55.802;37.032;2022-08-01T06:11:34;99939.81;;;25.05
67515;BMP280;60646;55.802;37.032;2022-08-01T06:14:06;99960.47;;;25.27
67515;BMP280;60646;55.802;37.032;2022-08-01T06:16:39;99958.84;;;25.33
67515;BMP280;60646;55.802;37.032;2022-08-01T06:19:05;99955.38;;;25.33
67515;BMP280;60646;55.802;37.032;2022-08-01T06:21:31;99959.66;;;25.46
67515;BMP280;60646;55.802;37.032;2022-08-01T06:23:57;99957.78;;;25.48
67515;BMP280;60646;55.802;37.032;2022-08-01T06:26:41;99964.75;;;25.61
67515;BMP280;60646;55.802;37.032;2022-08-01T06:29:07;99956.44;;;25.59
67515;BMP280;60646;55.802;37.032;2022-08-01T06:31:33;99960.84;;;25.64
67515;BMP280;60646;55.802;37.032;2022-08-01T06:33:59;99956.34;;;25.68
67515;BMP280;60646;55.802;37.032;2022-08-01T06:36:24;99957.59;;;25.77
67515;BMP280;60646;55.802;37.032;2022-08-01T06:38:51;99957.88;;;25.81
67515;BMP280;60646;55.802;37.032;2022-08-01T06:41:16;99951.94;;;25.84
67515;BMP280;60646;55.802;37.032;2022-08-01T06:43:44;99964.13;;;25.93
67515;BMP280;60646;55.802;37.032;2022-08-01T06:46:10;99962.34;;;25.97
67515;BMP280;60646;55.802;37.032;2022-08-01T06:48:36;99968.50;;;26.07
67515;BMP280;60646;55.802;37.032;2022-08-01T06:51:05;99953.22;;;26.04
67515;BMP280;60646;55.802;37.032;2022-08-01T06:53:37;99957.91;;;26.13
67515;BMP280;60646;55.802;37.032;2022-08-01T06:56:04;99962.56;;;26.22
67515;BMP280;60646;55.802;37.032;2022-08-01T06:58:30;99960.00;;;26.24
67515;BMP280;60646;55.802;37.032;2022-08-01T07:00:56;99958.78;;;26.27
67515;BMP280;60646;55.802;37.032;2022-08-01T07:03:48;99965.78;;;26.52
67515;BMP280;60646;55.802;37.032;2022-08-01T07:06:13;99958.97;;;26.41
67515;BMP280;60646;55.802;37.032;2022-08-01T07:08:40;99967.22;;;26.53
67515;BMP280;60646;55.802;37.032;2022-08-01T07:11:06;99954.56;;;26.48
67515;BMP280;60646;55.802;37.032;2022-08-01T07:13:32;99958.28;;;26.52
67515;BMP280;60646;55.802;37.032;2022-08-01T07:15:58;99953.13;;;26.58
67515;BMP280;60646;55.802;37.032;2022-08-01T07:18:24;99963.66;;;26.62
67515;BMP280;60646;55.802;37.032;2022-08-01T07:20:50;99960.81;;;26.71
67515;BMP280;60646;55.802;37.032;2022-08-01T07:23:34;99950.31;;;26.68
67515;BMP280;60646;55.802;37.032;2022-08-01T07:26:00;99961.78;;;26.76
67515;BMP280;60646;55.802;37.032;2022-08-01T07:28:29;99955.84;;;26.79
67515;BMP280;60646;55.802;37.032;2022-08-01T07:30:55;99959.66;;;26.86
67515;BMP280;60646;55.802;37.032;2022-08-01T07:33:21;99965.88;;;26.98
67515;BMP280;60646;55.802;37.032;2022-08-01T07:35:48;99959.03;;;26.99
67515;BMP280;60646;55.802;37.032;2022-08-01T07:38:14;99949.63;;;27.02
67515;BMP280;60646;55.802;37.032;2022-08-01T07:40:45;99961.34;;;27.14
67515;BMP280;60646;55.802;37.032;2022-08-01T07:43:11;99947.72;;;27.16
67515;BMP280;60646;55.802;37.032;2022-08-01T07:45:36;99952.25;;;27.23
67515;BMP280;60646;55.802;37.032;2022-08-01T07:48:06;99970.34;;;27.40
67515;BMP280;60646;55.802;37.032;2022-08-01T07:51:02;99959.38;;;27.51
67515;BMP280;60646;55.802;37.032;2022-08-01T07:53:30;99952.09;;;27.44
67515;BMP280;60646;55.802;37.032;2022-08-01T07:55:56;99953.97;;;27.53
67515;BMP280;60646;55.802;37.032;2022-08-01T07:58:22;99950.50;;;27.64
67515;BMP280;60646;55.802;37.032;2022-08-01T08:00:48;99953.59;;;27.70
67515;BMP280;60646;55.802;37.032;2022-08-01T08:03:14;99949.88;;;27.77
67515;BMP280;60646;55.802;37.032;2022-08-01T08:05:43;99956.16;;;27.91
67515;BMP280;60646;55.802;37.032;2022-08-01T08:08:09;99932.50;;;27.86
67515;BMP280;60646;55.802;37.032;2022-08-01T08:10:39;99937.28;;;27.97
67515;BMP280;60646;55.802;37.032;2022-08-01T08:13:05;99946.03;;;28.07
67515;BMP280;60646;55.802;37.032;2022-08-01T08:15:30;99944.94;;;28.12
67515;BMP280;60646;55.802;37.032;2022-08-01T08:17:56;99936.59;;;28.10
67515;BMP280;60646;55.802;37.032;2022-08-01T08:20:22;99938.97;;;28.16
67515;BMP280;60646;55.802;37.032;2022-08-01T08:22:51;99938.34;;;28.17
67515;BMP280;60646;55.802;37.032;2022-08-01T08:25:17;99931.88;;;28.24
67515;BMP280;60646;55.802;37.032;2022-08-01T08:27:45;99941.84;;;28.31
67515;BMP280;60646;55.802;37.032;2022-08-01T08:30:12;99940.75;;;28.37
67515;BMP280;60646;55.802;37.032;2022-08-01T08:32:38;99937.28;;;28.36
67515;BMP280;60646;55.802;37.032;2022-08-01T08:35:05;99927.03;;;28.37
67515;BMP280;60646;55.802;37.032;2022-08-01T08:37:32;99930.69;;;28.41
67515;BMP280;60646;55.802;37.032;2022-08-01T08:39:58;99938.75;;;28.51
67515;BMP280;60646;55.802;37.032;2022-08-01T08:42:24;99927.84;;;28.53
67515;BMP280;60646;55.802;37.032;2022-08-01T08:44:50;99920.81;;;28.50
67515;BMP280;60646;55.802;37.032;2022-08-01T08:47:17;99925.41;;;28.59
67515;BMP280;60646;55.802;37.032;2022-08-01T08:49:44;99925.81;;;28.67
67515;BMP280;60646;55.802;37.032;2022-08-01T08:52:11;99934.59;;;28.77
67515;BMP280;60646;55.802;37.032;2022-08-01T08:54:38;99927.59;;;28.74
67515;BMP280;60646;55.802;37.032;2022-08-01T08:57:05;99925.94;;;28.82
67515;BMP280;60646;55.802;37.032;2022-08-01T08:59:33;99920.97;;;28.79
67515;BMP280;60646;55.802;37.032;2022-08-01T09:02:00;99924.00;;;28.85
67515;BMP280;60646;55.802;37.032;2022-08-01T09:04:26;99929.50;;;28.85
67515;BMP280;60646;55.802;37.032;2022-08-01T09:06:53;99908.72;;;28.82
67515;BMP280;60646;55.802;37.032;2022-08-01T09:09:19;99924.41;;;28.93
67515;BMP280;60646;55.802;37.032;2022-08-01T09:11:45;99921.06;;;28.94
67515;BMP280;60646;55.802;37.032;2022-08-01T09:14:14;99906.41;;;28.90
67515;BMP280;60646;55.802;37.032;2022-08-01T09:16:44;99915.47;;;29.06
67515;BMP280;60646;55.802;37.032;2022-08-01T09:19:14;99911.56;;;29.11
67515;BMP280;60646;55.802;37.032;2022-08-01T09:21:59;99913.38;;;29.20
67515;BMP280;60646;55.802;37.032;2022-08-01T09:24:27;99907.88;;;29.20
67515;BMP280;60646;55.802;37.032;2022-08-01T09:26:54;99911.06;;;29.28
67515;BMP280;60646;55.802;37.032;2022-08-01T09:29:25;99910.09;;;29.37
67515;BMP280;60646;55.802;37.032;2022-08-01T09:31:51;99894.19;;;29.35
67515;BMP280;60646;55.802;37.032;2022-08-01T09:34:27;99902.41;;;29.49
67515;BMP280;60646;55.802;37.032;2022-08-01T09:36:55;99906.78;;;29.54
67515;BMP280;60646;55.802;37.032;2022-08-01T09:39:34;99916.97;;;29.65
67515;BMP280;60646;55.802;37.032;2022-08-01T09:42:22;99917.34;;;29.73
67515;BMP280;60646;55.802;37.032;2022-08-01T09:44:48;99910.53;;;29.61
67515;BMP280;60646;55.802;37.032;2022-08-01T09:47:15;99912.97;;;29.68
67515;BMP280;60646;55.802;37.032;2022-08-01T09:49:43;99918.56;;;29.70
67515;BMP280;60646;55.802;37.032;2022-08-01T09:52:17;99910.41;;;29.72
67515;BMP280;60646;55.802;37.032;2022-08-01T09:54:52;99903.19;;;29.65
67515;BMP280;60646;55.802;37.032;2022-08-01T09:57:19;99910.22;;;29.68
67515;BMP280;60646;55.802;37.032;2022-08-01T09:59:51;99904.72;;;29.68
67515;BMP280;60646;55.802;37.032;2022-08-01T10:02:35;99903.44;;;29.71
67515;BMP280;60646;55.802;37.032;2022-08-01T10:05:03;99896.75;;;29.61
67515;BMP280;60646;55.802;37.032;2022-08-01T10:07:30;99890.09;;;29.50
67515;BMP280;60646;55.802;37.032;2022-08-01T10:10:09;99895.97;;;29.58
67515;BMP280;60646;55.802;37.032;2022-08-01T10:12:36;99884.22;;;29.42
67515;BMP280;60646;55.802;37.032;2022-08-01T10:15:02;99888.16;;;29.39
67515;BMP280;60646;55.802;37.032;2022-08-01T10:17:29;99885.53;;;29.41
67515;BMP280;60646;55.802;37.032;2022-08-01T10:19:59;99896.00;;;29.44
67515;BMP280;60646;55.802;37.032;2022-08-01T10:22:30;99901.81;;;29.51
67515;BMP280;60646;55.802;37.032;2022-08-01T10:24:56;99891.09;;;29.43
67515;BMP280;60646;55.802;37.032;2022-08-01T10:27:25;99890.41;;;29.42
67515;BMP280;60646;55.802;37.032;2022-08-01T10:29:58;99892.75;;;29.48
67515;BMP280;60646;55.802;37.032;2022-08-01T10:32:31;99891.09;;;29.43
67515;BMP280;60646;55.802;37.032;2022-08-01T10:34:58;99884.09;;;29.40
67515;BMP280;60646;55.802;37.032;2022-08-01T10:37:24;99882.75;;;29.41
67515;BMP280;60646;55.802;37.032;2022-08-01T10:39:51;99893.25;;;29.44
67515;BMP280;60646;55.802;37.032;2022-08-01T10:42:18;99883.97;;;29.38
67515;BMP280;60646;55.802;37.032;2022-08-01T10:44:45;99897.09;;;29.53
67515;BMP280;60646;55.802;37.032;2022-08-01T10:47:14;99897.22;;;29.55
67515;BMP280;60646;55.802;37.032;2022-08-01T10:49:47;99883.34;;;29.53
67515;BMP280;60646;55.802;37.032;2022-08-01T10:52:19;99887.59;;;29.56
67515;BMP280;60646;55.802;37.032;2022-08-01T10:57:53;99889.00;;;29.57
67515;BMP280;60646;55.802;37.032;2022-08-01T11:00:20;99883.44;;;29.55
67515;BMP280;60646;55.802;37.032;2022-08-01T11:03:01;99893.69;;;29.68
67515;BMP280;60646;55.802;37.032;2022-08-01T11:05:31;99882.97;;;29.61
67515;BMP280;60646;55.802;37.032;2022-08-01T11:08:01;99884.09;;;29.69
67515;BMP280;60646;55.802;37.032;2022-08-01T11:10:46;99884.47;;;29.77
67515;BMP280;60646;55.802;37.032;2022-08-01T11:13:13;99873.28;;;29.73
67515;BMP280;60646;55.802;37.032;2022-08-01T11:15:42;99876.81;;;29.76
67515;BMP280;60646;55.802;37.032;2022-08-01T11:21:02;99878.09;;;29.88
67515;BMP280;60646;55.802;37.032;2022-08-01T11:23:29;99875.25;;;29.86
67515;BMP280;60646;55.802;37.032;2022-08-01T11:28:40;99870.63;;;29.91
67515;BMP280;60646;55.802;37.032;2022-08-01T11:41:27;99871.88;;;30.03
67515;BMP280;60646;55.802;37.032;2022-08-01T11:43:56;99860.13;;;30.03
67515;BMP280;60646;55.802;37.032;2022-08-01T11:46:47;99860.31;;;30.22
67515;BMP280;60646;55.802;37.032;2022-08-01T11:51:57;99853.91;;;30.33
67515;BMP280;60646;55.802;37.032;2022-08-01T11:54:31;99838.97;;;30.38
67515;BMP280;60646;55.802;37.032;2022-08-01T11:56:59;99850.31;;;30.46
67515;BMP280;60646;55.802;37.032;2022-08-01T11:59:28;99839.28;;;30.46
67515;BMP280;60646;55.802;37.032;2022-08-01T12:01:54;99835.03;;;30.43
67515;BMP280;60646;55.802;37.032;2022-08-01T12:04:20;99839.56;;;30.52
67515;BMP280;60646;55.802;37.032;2022-08-01T12:06:45;99833.09;;;30.46
67515;BMP280;60646;55.802;37.032;2022-08-01T12:09:22;99832.69;;;30.53
67515;BMP280;60646;55.802;37.032;2022-08-01T12:11:49;99824.72;;;30.44
67515;BMP280;60646;55.802;37.032;2022-08-01T12:14:19;99828.44;;;30.50
67515;BMP280;60646;55.802;37.032;2022-08-01T12:16:51;99844.41;;;30.70
67515;BMP280;60646;55.802;37.032;2022-08-01T12:19:22;99839.72;;;30.56
67515;BMP280;60646;55.802;37.032;2022-08-01T12:22:11;99837.84;;;30.61
67515;BMP280;60646;55.802;37.032;2022-08-01T12:24:39;99836.63;;;30.48
67515;BMP280;60646;55.802;37.032;2022-08-01T12:27:06;99817.72;;;30.41
67515;BMP280;60646;55.802;37.032;2022-08-01T12:29:40;99823.38;;;30.45
67515;BMP280;60646;55.802;37.032;2022-08-01T12:32:27;99834.84;;;30.55
67515;BMP280;60646;55.802;37.032;2022-08-01T12:34:55;99814.06;;;30.36
67515;BMP280;60646;55.802;37.032;2022-08-01T12:37:21;99825.97;;;30.41
67515;BMP280;60646;55.802;37.032;2022-08-01T12:39:50;99830.56;;;30.52
67515;BMP280;60646;55.802;37.032;2022-08-01T12:42:16;99822.75;;;30.46
67515;BMP280;60646;55.802;37.032;2022-08-01T12:44:47;99820.25;;;30.52
67515;BMP280;60646;55.802;37.032;2022-08-01T12:47:15;99809.03;;;30.48
67515;BMP280;60646;55.802;37.032;2022-08-01T12:49:42;99820.41;;;30.56
67515;BMP280;60646;55.802;37.032;2022-08-01T12:52:09;99824.88;;;30.64
67515;BMP280;60646;55.802;37.032;2022-08-01T12:55:04;99815.72;;;30.77
67515;BMP280;60646;55.802;37.032;2022-08-01T12:57:32;99808.91;;;30.62
67515;BMP280;60646;55.802;37.032;2022-08-01T13:00:25;99822.84;;;30.82
67515;BMP280;60646;55.802;37.032;2022-08-01T13:03:06;99815.88;;;30.81
67515;BMP280;60646;55.802;37.032;2022-08-01T13:08:19;99790.81;;;30.75
67515;BMP280;60646;55.802;37.032;2022-08-01T13:10:45;99799.00;;;30.73
67515;BMP280;60646;55.802;37.032;2022-08-01T13:13:17;99803.44;;;30.80
67515;BMP280;60646;55.802;37.032;2022-08-01T13:15:44;99798.47;;;30.76
67515;BMP280;60646;55.802;37.032;2022-08-01T13:18:28;99795.41;;;30.86
67515;BMP280;60646;55.802;37.032;2022-08-01T13:26:40;99799.31;;;30.81
67515;BMP280;60646;55.802;37.032;2022-08-01T13:29:08;99802.31;;;30.69
67515;BMP280;60646;55.802;37.032;2022-08-01T13:31:35;99793.84;;;30.65
67515;BMP280;60646;55.802;37.032;2022-08-01T13:34:02;99799.56;;;30.69
67515;BMP280;60646;55.802;37.032;2022-08-01T13:36:28;99794.50;;;30.64
67515;BMP280;60646;55.802;37.032;2022-08-01T13:38:55;99796.00;;;30.67
67515;BMP280;60646;55.802;37.032;2022-08-01T13:41:40;99794.41;;;30.61
67515;BMP280;60646;55.802;37.032;2022-08-01T13:44:06;99802.06;;;30.63
67515;BMP280;60646;55.802;37.032;2022-08-01T13:46:35;99792.81;;;30.56
67515;BMP280;60646;55.802;37.032;2022-08-01T13:49:02;99802.63;;;30.59
67515;BMP280;60646;55.802;37.032;2022-08-01T13:51:28;99787.75;;;30.51
67515;BMP280;60646;55.802;37.032;2022-08-01T13:53:54;99802.78;;;30.64
67515;BMP280;60646;55.802;37.032;2022-08-01T13:56:20;99783.75;;;30.54
67515;BMP280;60646;55.802;37.032;2022-08-01T13:58:46;99800.09;;;30.66
67515;BMP280;60646;55.802;37.032;2022-08-01T14:01:12;99800.03;;;30.64
67515;BMP280;60646;55.802;37.032;2022-08-01T14:03:39;99785.66;;;30.49
67515;BMP280;60646;55.802;37.032;2022-08-01T14:06:07;99799.59;;;30.53
67515;BMP280;60646;55.802;37.032;2022-08-01T14:08:33;99784.84;;;30.47
67515;BMP280;60646;55.802;37.032;2022-08-01T14:10:59;99789.72;;;30.48
67515;BMP280;60646;55.802;37.032;2022-08-01T14:13:28;99797.09;;;30.59
67515;BMP280;60646;55.802;37.032;2022-08-01T14:15:54;99791.41;;;30.55
67515;BMP280;60646;55.802;37.032;2022-08-01T14:18:20;99790.53;;;30.51
67515;BMP280;60646;55.802;37.032;2022-08-01T14:20:46;99791.22;;;30.51
67515;BMP280;60646;55.802;37.032;2022-08-01T14:23:12;99799.91;;;30.61
67515;BMP280;60646;55.802;37.032;2022-08-01T14:25:39;99807.59;;;30.63
67515;BMP280;60646;55.802;37.032;2022-08-01T14:28:05;99802.53;;;30.57
67515;BMP280;60646;55.802;37.032;2022-08-01T14:30:32;99805.38;;;30.59
67515;BMP280;60646;55.802;37.032;2022-08-01T14:32:59;99790.53;;;30.51
67515;BMP280;60646;55.802;37.032;2022-08-01T14:35:25;99786.25;;;30.48
67515;BMP280;60646;55.802;37.032;2022-08-01T14:37:52;99796.22;;;30.55
67515;BMP280;60646;55.802;37.032;2022-08-01T14:40:18;99782.91;;;30.49
67515;BMP280;60646;55.802;37.032;2022-08-01T14:42:44;99802.53;;;30.57
67515;BMP280;60646;55.802;37.032;2022-08-01T14:45:11;99804.66;;;30.59
67515;BMP280;60646;55.802;37.032;2022-08-01T14:47:39;99803.84;;;30.56
67515;BMP280;60646;55.802;37.032;2022-08-01T14:50:07;99794.09;;;30.53